Time;durP1;ratioP1;P1;durP2;ratioP2;P2;SDS_P1;SDS_P2;PMS_P1;PMS_P2;Temp;Humidity;BMP_temperature;BMP_pressure;BME280_temperature;BME280_humidity;BME280_pressure;Samples;Min_cycle;Max_cycle;Signal;HPM_P1;HPM_P2
2023/12/15 00:01:03;;;;;;;16.33;6.88;;;19.30;56.10;;;;;;5152897;27;20493;-58
2023/12/15 00:03:29;;;;;;;16.70;6.10;;;19.30;57.10;;;;;;5153900;27;20101;-54
2023/12/15 00:05:55;;;;;;;19.30;6.40;;;19.30;57.30;;;;;;5153149;27;20485;-59
2023/12/15 00:08:21;;;;;;;19.10;7.30;;;19.30;57.50;;;;;;5118530;27;20828;-60
2023/12/15 00:10:47;;;;;;;16.75;6.60;;;19.30;56.90;;;;;;5135713;27;20109;-59
2023/12/15 00:13:12;;;;;;;18.17;6.25;;;19.30;57.40;;;;;;5136533;27;20137;-60
2023/12/15 00:15:38;;;;;;;13.40;6.07;;;19.20;57.50;;;;;;5146444;27;20026;-60
2023/12/15 00:18:04;;;;;;;15.63;5.97;;;19.20;56.50;;;;;;5136308;27;20367;-59
2023/12/15 00:20:30;;;;;;;14.13;5.88;;;19.20;57.30;;;;;;5144773;27;20030;-60
2023/12/15 00:22:55;;;;;;;13.68;5.95;;;19.20;58.40;;;;;;5132311;27;20574;-59
2023/12/15 00:25:21;;;;;;;15.07;6.45;;;19.30;57.40;;;;;;5137305;27;20075;-58
2023/12/15 00:27:48;;;;;;;12.32;5.78;;;19.30;56.90;;;;;;5144682;27;20020;-59
2023/12/15 00:30:14;;;;;;;11.02;5.78;;;19.20;56.90;;;;;;5139696;27;20046;-58
2023/12/15 00:32:40;;;;;;;16.05;6.18;;;19.20;57.40;;;;;;5138322;27;20021;-59
2023/12/15 00:35:06;;;;;;;14.82;6.00;;;19.20;57.30;;;;;;5136836;27;20019;-59
2023/12/15 00:37:32;;;;;;;13.45;5.78;;;19.20;57.40;;;;;;5143366;27;20034;-59
2023/12/15 00:39:58;;;;;;;14.70;6.15;;;19.20;57.40;;;;;;5147871;27;20019;-59
2023/12/15 00:42:24;;;;;;;11.27;5.70;;;19.20;58.00;;;;;;5141049;27;20061;-59
2023/12/15 00:44:50;;;;;;;13.20;5.38;;;19.20;57.10;;;;;;5148917;27;20029;-58
2023/12/15 00:47:15;;;;;;;10.65;5.18;;;19.20;57.10;;;;;;5128690;27;20057;-59
2023/12/15 00:49:41;;;;;;;14.07;5.78;;;19.30;57.00;;;;;;5141481;27;20027;-56
2023/12/15 00:52:07;;;;;;;12.68;5.40;;;19.20;57.80;;;;;;5135790;27;20483;-59
2023/12/15 00:54:33;;;;;;;11.75;5.28;;;19.20;57.40;;;;;;5137562;27;20493;-57
2023/12/15 00:56:59;;;;;;;14.48;6.03;;;19.20;57.20;;;;;;5139500;27;20400;-59
2023/12/15 00:59:26;;;;;;;13.82;5.97;;;19.30;57.30;;;;;;5141536;27;20452;-60
2023/12/15 01:01:51;;;;;;;16.42;5.72;;;19.20;57.40;;;;;;5123398;27;20081;-60
2023/12/15 01:04:17;;;;;;;11.88;5.13;;;19.20;56.90;;;;;;5139556;27;20054;-60
2023/12/15 01:06:43;;;;;;;10.68;5.25;;;19.20;57.10;;;;;;5138677;27;20079;-60
2023/12/15 01:09:09;;;;;;;14.18;5.00;;;19.20;56.80;;;;;;5143393;27;20023;-60
2023/12/15 01:11:34;;;;;;;14.80;5.65;;;19.20;57.10;;;;;;5151453;27;20030;-60
2023/12/15 01:14:00;;;;;;;13.23;5.18;;;19.30;58.10;;;;;;5147637;27;20048;-60
2023/12/15 01:16:26;;;;;;;14.18;5.40;;;19.20;58.40;;;;;;5151259;27;20034;-60
2023/12/15 01:18:52;;;;;;;17.35;5.57;;;19.20;58.80;;;;;;5122632;27;20050;-60
2023/12/15 01:21:17;;;;;;;12.95;5.32;;;19.20;58.80;;;;;;5151356;27;20023;-58
2023/12/15 01:23:44;;;;;;;20.10;6.10;;;19.10;58.60;;;;;;5150989;27;20031;-60
2023/12/15 01:26:10;;;;;;;14.63;4.82;;;19.10;58.80;;;;;;5151883;27;20039;-60
2023/12/15 01:28:36;;;;;;;15.13;5.25;;;19.10;58.80;;;;;;5149271;27;20026;-60
2023/12/15 01:31:02;;;;;;;11.52;5.05;;;19.00;58.50;;;;;;5150884;27;20397;-59
2023/12/15 01:33:29;;;;;;;11.00;5.07;;;19.10;58.70;;;;;;5151852;27;20095;-60
2023/12/15 01:35:55;;;;;;;12.07;4.93;;;19.10;58.90;;;;;;5149159;27;20072;-60
2023/12/15 01:38:20;;;;;;;9.20;4.63;;;19.00;58.80;;;;;;5151865;27;20026;-60
2023/12/15 01:40:46;;;;;;;11.40;4.72;;;19.00;58.80;;;;;;5150371;27;20034;-59
2023/12/15 01:43:12;;;;;;;13.23;4.90;;;19.10;58.80;;;;;;5152696;27;20038;-57
2023/12/15 01:45:38;;;;;;;10.15;4.90;;;19.00;58.30;;;;;;5142965;27;20086;-60
2023/12/15 01:48:04;;;;;;;10.55;4.97;;;19.00;57.80;;;;;;5131835;27;20027;-59
2023/12/15 01:50:30;;;;;;;10.10;4.95;;;19.10;58.20;;;;;;5149679;27;20031;-60
2023/12/15 01:52:56;;;;;;;12.90;5.03;;;19.10;58.30;;;;;;5153784;27;20094;-57
2023/12/15 01:55:21;;;;;;;12.40;5.03;;;19.00;58.20;;;;;;5156147;27;20022;-60
2023/12/15 01:57:47;;;;;;;8.85;4.65;;;19.10;57.90;;;;;;5153958;27;20392;-59
2023/12/15 02:00:13;;;;;;;9.02;4.05;;;19.00;57.70;;;;;;5139697;27;20047;-58
2023/12/15 02:02:39;;;;;;;12.52;4.78;;;19.00;58.40;;;;;;5153444;27;20029;-60
2023/12/15 02:05:05;;;;;;;11.13;5.07;;;19.10;58.80;;;;;;5154553;27;20018;-60
2023/12/15 02:07:31;;;;;;;7.57;4.53;;;19.10;58.70;;;;;;5147816;27;20031;-60
2023/12/15 02:09:58;;;;;;;11.38;4.72;;;19.10;58.60;;;;;;5154506;27;20020;-60
2023/12/15 02:12:24;;;;;;;11.15;4.60;;;19.00;59.20;;;;;;5117099;27;20094;-59
2023/12/15 02:14:50;;;;;;;8.98;4.72;;;19.10;58.90;;;;;;5136140;27;20169;-60
2023/12/15 02:17:16;;;;;;;12.43;4.55;;;19.00;59.00;;;;;;5155256;27;20102;-60
2023/12/15 02:19:42;;;;;;;11.18;4.38;;;19.10;59.20;;;;;;5156123;27;20397;-59
2023/12/15 02:22:08;;;;;;;7.80;4.45;;;19.00;59.10;;;;;;5155871;27;20023;-58
2023/12/15 02:24:33;;;;;;;11.10;5.10;;;19.00;59.10;;;;;;5147059;27;20015;-59
2023/12/15 02:26:59;;;;;;;12.52;4.10;;;19.00;59.20;;;;;;5155065;27;20027;-60
2023/12/15 02:29:27;;;;;;;11.30;4.07;;;19.00;59.10;;;;;;5120827;27;20041;-59
2023/12/15 02:31:54;;;;;;;9.23;4.15;;;19.00;59.20;;;;;;5152907;27;20026;-59
2023/12/15 02:34:20;;;;;;;9.93;4.65;;;19.00;59.20;;;;;;5153961;27;20018;-59
2023/12/15 02:36:45;;;;;;;10.82;4.13;;;19.00;58.60;;;;;;5154802;27;20026;-59
2023/12/15 02:39:11;;;;;;;8.35;3.80;;;19.00;59.10;;;;;;5155819;27;20099;-58
2023/12/15 02:41:37;;;;;;;10.43;4.40;;;19.00;59.10;;;;;;5134389;27;20031;-60
2023/12/15 02:44:03;;;;;;;10.15;4.82;;;19.00;59.50;;;;;;5155677;27;20062;-59
2023/12/15 02:46:28;;;;;;;8.27;4.30;;;19.00;59.50;;;;;;5150729;27;20066;-58
2023/12/15 02:48:54;;;;;;;12.50;4.10;;;19.00;59.70;;;;;;5150727;27;20067;-59
2023/12/15 02:51:30;;;;;;;11.20;4.25;;;19.00;59.70;;;;;;5150169;27;20034;-58
2023/12/15 02:54:01;;;;;;;7.93;4.25;;;19.00;59.40;;;;;;5150944;27;20373;-59
2023/12/15 02:56:27;;;;;;;8.00;4.10;;;19.00;59.70;;;;;;5149457;27;20438;-60
2023/12/15 02:58:53;;;;;;;10.98;4.38;;;18.90;59.60;;;;;;5146598;27;20534;-59
2023/12/15 03:01:19;;;;;;;11.98;4.07;;;18.90;59.10;;;;;;5154461;27;20038;-60
2023/12/15 03:03:45;;;;;;;12.52;4.53;;;19.00;59.00;;;;;;5152652;27;20034;-60
2023/12/15 03:06:11;;;;;;;8.20;4.45;;;18.90;58.80;;;;;;5138466;27;20035;-60
2023/12/15 03:08:36;;;;;;;8.05;4.05;;;18.90;58.80;;;;;;5153940;27;20033;-59
2023/12/15 03:11:02;;;;;;;8.57;4.30;;;19.00;58.80;;;;;;5153267;27;20031;-60
2023/12/15 03:13:29;;;;;;;9.13;3.90;;;19.00;58.90;;;;;;5155283;27;20103;-59
2023/12/15 03:16:11;;;;;;;7.75;3.90;;;19.00;58.80;;;;;;5137142;27;20027;-60
2023/12/15 03:18:39;;;;;;;7.43;3.83;;;18.90;58.20;;;;;;5146419;27;20079;-60
2023/12/15 03:21:05;;;;;;;6.75;4.00;;;18.90;59.20;;;;;;5153878;27;20102;-59
2023/12/15 03:23:31;;;;;;;6.38;3.90;;;18.90;58.50;;;;;;5154861;27;20442;-58
2023/12/15 03:25:57;;;;;;;7.30;4.05;;;18.90;58.40;;;;;;5133890;27;20027;-60
2023/12/15 03:28:23;;;;;;;7.95;3.67;;;19.00;59.00;;;;;;5154351;27;20019;-58
2023/12/15 03:30:49;;;;;;;8.35;3.63;;;18.90;59.30;;;;;;5153659;27;20054;-57
2023/12/15 03:33:14;;;;;;;8.95;3.63;;;18.90;58.80;;;;;;5154032;27;20026;-57
2023/12/15 03:35:40;;;;;;;9.13;3.67;;;18.90;58.60;;;;;;5153134;27;20058;-59
2023/12/15 03:38:06;;;;;;;9.15;4.00;;;18.90;58.70;;;;;;5154182;27;20033;-59
2023/12/15 03:40:32;;;;;;;6.57;3.72;;;18.90;59.20;;;;;;5153877;27;20064;-57
2023/12/15 03:42:58;;;;;;;7.50;3.85;;;18.90;59.00;;;;;;5153827;27;20099;-59
2023/12/15 03:45:25;;;;;;;10.23;3.95;;;18.90;58.30;;;;;;5153773;27;20062;-58
2023/12/15 03:47:51;;;;;;;7.10;3.55;;;18.90;57.70;;;;;;5154149;27;20030;-58
2023/12/15 03:50:17;;;;;;;5.55;3.30;;;18.90;58.00;;;;;;5153787;27;20022;-60
2023/12/15 03:52:42;;;;;;;9.50;3.92;;;18.90;58.20;;;;;;5153511;27;20026;-55
2023/12/15 03:55:08;;;;;;;6.43;4.00;;;19.00;57.50;;;;;;5153828;27;20030;-59
2023/12/15 03:57:34;;;;;;;7.35;3.80;;;19.00;57.60;;;;;;5152094;27;20027;-58
2023/12/15 04:00:00;;;;;;;7.00;3.67;;;18.90;57.60;;;;;;5153601;27;20489;-58
2023/12/15 04:02:25;;;;;;;8.60;3.60;;;18.90;57.40;;;;;;5152297;27;20030;-59
2023/12/15 04:04:51;;;;;;;6.68;3.63;;;19.00;57.50;;;;;;5145610;27;20023;-58
2023/12/15 04:07:17;;;;;;;6.35;3.63;;;19.00;57.70;;;;;;5153121;27;20106;-59
2023/12/15 04:09:43;;;;;;;7.07;4.20;;;19.00;57.50;;;;;;5144724;27;20023;-60
2023/12/15 04:12:08;;;;;;;8.05;4.28;;;19.00;57.90;;;;;;5152927;27;20026;-57
2023/12/15 04:14:34;;;;;;;9.68;4.15;;;19.00;58.00;;;;;;5152502;27;20014;-56
2023/12/15 04:17:00;;;;;;;7.18;3.80;;;19.00;57.70;;;;;;5151215;27;20030;-57
2023/12/15 04:19:26;;;;;;;7.72;4.10;;;19.00;58.30;;;;;;5152792;27;20022;-58
2023/12/15 04:21:52;;;;;;;6.35;3.80;;;19.00;58.60;;;;;;5148476;27;20022;-59
2023/12/15 04:24:18;;;;;;;6.13;3.72;;;19.00;57.80;;;;;;5147165;27;20023;-60
2023/12/15 04:26:44;;;;;;;6.90;3.92;;;19.00;57.80;;;;;;5151374;27;20109;-59
2023/12/15 04:29:11;;;;;;;6.40;3.50;;;19.00;57.60;;;;;;5152267;27;20113;-60
2023/12/15 04:31:36;;;;;;;11.55;3.88;;;19.00;58.70;;;;;;5148198;27;20026;-60
2023/12/15 04:34:02;;;;;;;7.72;3.50;;;19.00;58.80;;;;;;5152991;27;20014;-60
2023/12/15 04:36:28;;;;;;;7.80;3.63;;;19.00;57.80;;;;;;5152764;27;20155;-60
2023/12/15 04:38:54;;;;;;;11.35;4.00;;;19.00;58.00;;;;;;5147636;27;20053;-60
2023/12/15 04:41:24;;;;;;;10.73;4.25;;;19.00;57.70;;;;;;5152320;27;20076;-60
2023/12/15 04:43:50;;;;;;;7.00;3.65;;;19.00;57.50;;;;;;5152233;27;20030;-60
2023/12/15 04:46:27;;;;;;;8.32;3.85;;;19.00;57.30;;;;;;5132773;27;20117;-60
2023/12/15 04:48:55;;;;;;;6.95;3.75;;;19.00;57.30;;;;;;5152286;27;20029;-59
2023/12/15 04:51:21;;;;;;;7.22;3.95;;;19.00;57.20;;;;;;5152857;27;20049;-60
2023/12/15 04:53:48;;;;;;;7.57;3.60;;;19.00;57.30;;;;;;5150831;27;20515;-59
2023/12/15 04:56:14;;;;;;;7.68;4.07;;;19.00;57.20;;;;;;5134237;27;20425;-60
2023/12/15 04:58:40;;;;;;;7.65;3.90;;;19.00;57.00;;;;;;5151685;27;20022;-61
2023/12/15 05:01:10;;;;;;;7.82;3.90;;;19.00;57.30;;;;;;5151126;27;20039;-60
2023/12/15 05:03:36;;;;;;;;;;;19.00;57.80;;;;;;5132558;27;20477;-59
2023/12/15 05:06:02;;;;;;;5.50;3.08;;;19.00;57.60;;;;;;5151967;27;19914;-59
2023/12/15 05:08:27;;;;;;;7.50;3.75;;;19.00;57.70;;;;;;5145008;27;20055;-60
2023/12/15 05:10:53;;;;;;;8.25;3.50;;;19.00;57.50;;;;;;5151380;27;20037;-57
2023/12/15 05:13:19;;;;;;;8.23;3.38;;;19.00;57.20;;;;;;5152035;27;20131;-60
2023/12/15 05:15:45;;;;;;;7.60;4.10;;;19.00;56.90;;;;;;5152152;27;20389;-55
2023/12/15 05:18:10;;;;;;;7.13;3.92;;;19.00;57.20;;;;;;5152254;27;20102;-56
2023/12/15 05:20:37;;;;;;;7.13;4.20;;;19.00;57.30;;;;;;5151531;27;20456;-60
2023/12/15 05:23:03;;;;;;;7.03;3.47;;;19.00;57.30;;;;;;5152736;27;20507;-59
2023/12/15 05:25:29;;;;;;;7.38;3.83;;;19.00;57.50;;;;;;5151465;27;20054;-59
2023/12/15 05:27:55;;;;;;;7.80;3.92;;;19.00;57.40;;;;;;5151304;27;20077;-58
2023/12/15 05:30:21;;;;;;;8.35;4.47;;;19.00;56.90;;;;;;5145656;27;20084;-60
2023/12/15 05:32:46;;;;;;;7.65;3.50;;;19.00;57.10;;;;;;5148805;27;20027;-60
2023/12/15 05:35:12;;;;;;;8.85;3.83;;;19.00;56.90;;;;;;5152026;27;20027;-60
2023/12/15 05:37:38;;;;;;;9.60;4.25;;;19.00;57.60;;;;;;5152048;27;20019;-60
2023/12/15 05:40:04;;;;;;;6.97;3.65;;;19.00;57.60;;;;;;5139624;27;20094;-60
2023/12/15 05:42:30;;;;;;;11.70;4.35;;;19.00;57.30;;;;;;5147451;27;20067;-60
2023/12/15 05:44:56;;;;;;;8.05;4.00;;;19.00;57.00;;;;;;5157448;22;20036;-52
2023/12/15 05:47:22;;;;;;;7.25;3.97;;;18.90;57.20;;;;;;5110440;28;20549;-58
2023/12/15 05:49:47;;;;;;;7.93;4.07;;;18.90;57.10;;;;;;5110161;28;20099;-59
2023/12/15 05:52:14;;;;;;;6.63;3.75;;;18.90;57.10;;;;;;5109972;28;20115;-55
2023/12/15 05:54:40;;;;;;;7.13;3.70;;;19.00;57.90;;;;;;5110975;28;20020;-51
2023/12/15 05:57:07;;;;;;;7.38;4.07;;;18.90;56.70;;;;;;5110946;28;20031;-56
2023/12/15 05:59:32;;;;;;;6.97;3.70;;;19.00;57.20;;;;;;5110741;28;20020;-58
2023/12/15 06:01:58;;;;;;;8.95;4.35;;;18.90;57.00;;;;;;5109088;28;20343;-55
2023/12/15 06:04:24;;;;;;;8.15;3.60;;;18.90;57.80;;;;;;5110214;28;20019;-58
2023/12/15 06:06:50;;;;;;;7.30;3.90;;;18.90;57.10;;;;;;5109570;28;20096;-58
2023/12/15 06:09:16;;;;;;;6.53;3.90;;;18.90;56.80;;;;;;5109313;28;20482;-57
2023/12/15 06:11:42;;;;;;;7.72;4.28;;;19.00;56.80;;;;;;5109886;28;20493;-53
2023/12/15 06:14:08;;;;;;;7.28;4.28;;;19.00;57.40;;;;;;5110923;28;20108;-54
2023/12/15 06:16:35;;;;;;;5.47;3.80;;;19.00;57.10;;;;;;5110407;28;20403;-58
2023/12/15 06:19:01;;;;;;;7.78;4.53;;;19.00;56.70;;;;;;5091630;28;20073;-55
2023/12/15 06:21:28;;;;;;;7.35;4.22;;;19.00;56.50;;;;;;5105431;28;20019;-52
2023/12/15 06:23:54;;;;;;;10.70;4.40;;;19.00;57.30;;;;;;5109761;28;20041;-55
2023/12/15 06:26:25;;;;;;;8.65;4.40;;;19.00;56.70;;;;;;5109910;28;20027;-56
2023/12/15 06:28:53;;;;;;;10.40;4.50;;;19.00;57.80;;;;;;5110502;28;20405;-55
2023/12/15 06:31:18;;;;;;;9.27;4.53;;;19.00;57.20;;;;;;5109342;28;20038;-51
2023/12/15 06:33:44;;;;;;;8.68;4.13;;;19.00;57.20;;;;;;5110429;28;20031;-52
2023/12/15 06:36:10;;;;;;;7.72;3.97;;;19.00;57.30;;;;;;5108947;28;20110;-54
2023/12/15 06:38:36;;;;;;;8.85;4.22;;;19.00;58.50;;;;;;5111092;28;20015;-53
2023/12/15 06:41:05;;;;;;;7.85;4.13;;;19.00;57.20;;;;;;5114027;28;20114;-50
2023/12/15 06:43:32;;;;;;;8.23;4.53;;;19.00;56.70;;;;;;5112513;28;20031;-50
2023/12/15 06:45:58;;;;;;;7.20;4.15;;;19.00;56.40;;;;;;5113440;28;20659;-52
2023/12/15 06:48:24;;;;;;;9.13;4.57;;;19.00;58.00;;;;;;5112145;28;20077;-55
2023/12/15 06:50:49;;;;;;;8.40;4.50;;;19.10;56.60;;;;;;5114569;27;20501;-56
2023/12/15 06:53:17;;;;;;;9.95;4.80;;;19.10;56.70;;;;;;5114231;28;20328;-56
2023/12/15 06:55:43;;;;;;;8.95;5.28;;;19.00;56.60;;;;;;5113771;28;20031;-54
2023/12/15 06:58:09;;;;;;;8.45;4.72;;;19.00;56.50;;;;;;5113977;28;20406;-56
2023/12/15 07:00:35;;;;;;;11.95;5.28;;;19.00;56.70;;;;;;5113500;28;20035;-50
2023/12/15 07:03:00;;;;;;;11.23;4.65;;;19.00;57.10;;;;;;5113863;28;20024;-52
2023/12/15 07:05:26;;;;;;;13.55;5.10;;;19.00;57.30;;;;;;5112279;28;20028;-56
2023/12/15 07:07:52;;;;;;;10.48;5.07;;;19.00;57.40;;;;;;5113513;28;20390;-53
2023/12/15 07:10:17;;;;;;;11.52;5.20;;;19.10;57.60;;;;;;5113736;28;20410;-58
2023/12/15 07:12:43;;;;;;;9.00;5.20;;;19.10;57.70;;;;;;5112073;28;20024;-58
2023/12/15 07:15:09;;;;;;;11.88;5.25;;;19.00;57.70;;;;;;5113878;28;20084;-53
2023/12/15 07:17:34;;;;;;;37.40;5.90;;;19.00;58.20;;;;;;5114013;28;20022;-52
2023/12/15 07:20:00;;;;;;;25.10;5.88;;;19.20;61.80;;;;;;5113470;28;20027;-56
2023/12/15 07:22:26;;;;;;;15.82;4.90;;;19.20;60.50;;;;;;5113144;28;20099;-55
2023/12/15 07:24:51;;;;;;;21.40;5.90;;;19.30;59.40;;;;;;5113278;28;20059;-50
2023/12/15 07:27:17;;;;;;;25.55;5.57;;;19.20;58.20;;;;;;5112514;28;20447;-58
2023/12/15 07:29:43;;;;;;;19.10;5.72;;;19.20;59.90;;;;;;5111729;28;20513;-55
2023/12/15 07:32:09;;;;;;;15.77;7.55;;;19.20;59.20;;;;;;5112693;28;20030;-49
2023/12/15 07:34:35;;;;;;;24.67;10.57;;;19.20;59.00;;;;;;5112677;28;20051;-57
2023/12/15 07:37:01;;;;;;;19.70;9.57;;;19.00;53.50;;;;;;5111050;28;20027;-54
2023/12/15 07:39:26;;;;;;;19.45;9.82;;;18.90;52.70;;;;;;5113157;28;20020;-57
2023/12/15 07:41:52;;;;;;;20.15;7.47;;;18.90;54.20;;;;;;5113333;28;20411;-52
2023/12/15 07:44:18;;;;;;;12.95;7.18;;;18.90;55.10;;;;;;5113191;28;20444;-52
2023/12/15 07:46:43;;;;;;;13.75;6.80;;;18.90;56.10;;;;;;5112567;28;20042;-55
2023/12/15 07:49:13;;;;;;;10.80;6.13;;;18.90;56.60;;;;;;5112409;28;20032;-55
2023/12/15 07:51:39;;;;;;;;;;;18.90;57.00;;;;;;5112619;28;20032;-58
2023/12/15 07:54:05;;;;;;;12.55;6.65;;;18.90;57.30;;;;;;5113163;28;20389;-56
2023/12/15 07:56:30;;;;;;;12.55;6.15;;;18.90;57.60;;;;;;5113037;28;20032;-54
2023/12/15 07:58:56;;;;;;;12.63;6.30;;;18.90;57.90;;;;;;5112943;28;20023;-55
2023/12/15 08:01:24;;;;;;;15.93;5.70;;;18.90;58.50;;;;;;5112701;28;20027;-55
2023/12/15 08:03:52;;;;;;;11.65;5.35;;;18.90;58.10;;;;;;5113092;28;20077;-55
2023/12/15 08:06:19;;;;;;;9.88;6.05;;;18.90;58.30;;;;;;5113027;28;20028;-52
2023/12/15 08:08:46;;;;;;;11.35;5.40;;;18.90;58.50;;;;;;5112949;28;20024;-55
2023/12/15 08:11:13;;;;;;;12.27;5.85;;;18.90;58.50;;;;;;5112537;28;20035;-53
2023/12/15 08:13:40;;;;;;;12.20;5.60;;;18.90;58.70;;;;;;5112841;28;20501;-52
2023/12/15 08:16:07;;;;;;;12.38;5.55;;;18.90;58.80;;;;;;5108666;28;20011;-57
2023/12/15 08:18:33;;;;;;;10.20;5.43;;;18.90;57.90;;;;;;5108145;28;20522;-56
2023/12/15 08:20:59;;;;;;;15.00;6.30;;;19.00;58.00;;;;;;5109120;28;20137;-54
2023/12/15 08:23:25;;;;;;;10.43;5.18;;;19.00;58.10;;;;;;5109720;28;20031;-58
2023/12/15 08:25:51;;;;;;;17.58;5.60;;;19.10;58.80;;;;;;5105096;28;20665;-55
2023/12/15 08:28:19;;;;;;;13.65;5.63;;;19.10;58.30;;;;;;5110407;28;20103;-55
2023/12/15 08:30:46;;;;;;;31.17;6.30;;;19.00;58.70;;;;;;5109284;28;20028;-57
2023/12/15 08:33:12;;;;;;;18.40;5.70;;;19.10;58.40;;;;;;5109941;28;20424;-60
2023/12/15 08:35:37;;;;;;;15.43;5.70;;;19.10;57.90;;;;;;5108707;28;20024;-56
2023/12/15 08:38:03;;;;;;;21.58;6.32;;;19.10;58.70;;;;;;5109905;28;20103;-57
2023/12/15 08:40:29;;;;;;;19.35;6.88;;;19.20;59.40;;;;;;5109859;28;20099;-57
2023/12/15 08:42:55;;;;;;;23.60;7.30;;;19.20;59.80;;;;;;5090506;28;20027;-54
2023/12/15 08:45:21;;;;;;;21.92;8.13;;;19.30;60.70;;;;;;5109815;28;20115;-54
2023/12/15 08:47:46;;;;;;;13.75;6.65;;;19.30;61.60;;;;;;5091664;28;20054;-55
2023/12/15 08:50:13;;;;;;;18.58;7.07;;;19.30;62.10;;;;;;5109681;28;20024;-56
2023/12/15 08:52:40;;;;;;;21.88;6.57;;;19.40;63.00;;;;;;5108856;28;20100;-56
2023/12/15 08:55:06;;;;;;;14.32;5.97;;;19.40;59.10;;;;;;5109684;28;20043;-57
2023/12/15 08:57:33;;;;;;;15.63;6.30;;;19.40;59.00;;;;;;5109519;28;20042;-57
2023/12/15 08:59:59;;;;;;;19.08;6.32;;;19.40;59.30;;;;;;5109586;28;20031;-52
2023/12/15 09:02:28;;;;;;;15.82;6.30;;;19.40;57.80;;;;;;5109062;28;20024;-55
2023/12/15 09:04:54;;;;;;;14.32;6.55;;;19.40;60.60;;;;;;5109883;27;20080;-55
2023/12/15 09:07:19;;;;;;;11.80;6.18;;;19.40;60.60;;;;;;5110007;28;20019;-56
2023/12/15 09:09:45;;;;;;;12.30;5.88;;;19.40;60.20;;;;;;5109507;28;20050;-56
2023/12/15 09:12:11;;;;;;;21.38;6.28;;;19.40;61.00;;;;;;5107790;27;20110;-52
2023/12/15 09:14:38;;;;;;;23.77;6.15;;;19.40;59.80;;;;;;5104352;28;20054;-54
2023/12/15 09:17:05;;;;;;;14.15;5.80;;;19.50;59.30;;;;;;5106926;28;20020;-52
2023/12/15 09:19:32;;;;;;;13.00;6.25;;;19.50;59.20;;;;;;5106773;28;20448;-53
2023/12/15 09:21:58;;;;;;;10.95;5.88;;;19.40;59.10;;;;;;5106286;28;20031;-54
2023/12/15 09:24:23;;;;;;;11.73;6.10;;;19.40;59.10;;;;;;5107230;28;20057;-51
2023/12/15 09:26:49;;;;;;;16.65;5.80;;;19.40;59.10;;;;;;5106758;28;20553;-54
2023/12/15 09:29:15;;;;;;;11.38;5.78;;;19.40;59.10;;;;;;5107565;28;20030;-56
2023/12/15 09:31:42;;;;;;;9.30;5.68;;;19.40;59.00;;;;;;5106770;28;20023;-55
2023/12/15 09:34:08;;;;;;;11.88;5.50;;;19.40;59.00;;;;;;5088950;28;20502;-52
2023/12/15 09:36:34;;;;;;;13.07;6.10;;;19.40;59.00;;;;;;5107337;28;20028;-50
2023/12/15 09:39:00;;;;;;;14.13;6.35;;;19.40;59.00;;;;;;5107363;28;20773;-59
2023/12/15 09:41:28;;;;;;;11.35;5.57;;;19.40;59.00;;;;;;5088586;28;20122;-57
2023/12/15 09:43:54;;;;;;;13.10;5.68;;;19.40;59.00;;;;;;5106500;28;20035;-51
2023/12/15 09:46:21;;;;;;;20.40;6.20;;;19.40;59.40;;;;;;5106828;28;20027;-50
2023/12/15 09:48:48;;;;;;;18.25;5.57;;;19.40;59.40;;;;;;5106950;28;20036;-57
2023/12/15 09:51:35;;;;;;;11.38;5.38;;;19.40;59.40;;;;;;5105967;28;20103;-56
2023/12/15 09:54:00;;;;;;;11.60;5.93;;;19.40;59.10;;;;;;5104583;28;20016;-57
2023/12/15 09:56:26;;;;;;;11.43;5.57;;;19.30;59.20;;;;;;5107280;28;20020;-57
2023/12/15 09:58:53;;;;;;;13.52;5.97;;;19.30;59.10;;;;;;5106544;28;20096;-55
2023/12/15 10:01:19;;;;;;;14.45;5.90;;;19.30;59.10;;;;;;5105616;28;20055;-59
2023/12/15 10:03:45;;;;;;;10.15;5.25;;;19.30;59.20;;;;;;5104246;28;20051;-54
2023/12/15 10:06:11;;;;;;;11.25;4.65;;;19.30;59.20;;;;;;5106969;28;20035;-57
2023/12/15 10:08:44;;;;;;;13.18;5.35;;;19.30;59.00;;;;;;5104455;28;20554;-56
2023/12/15 10:11:10;;;;;;;10.13;5.32;;;19.30;59.00;;;;;;5106053;28;20031;-56
2023/12/15 10:13:39;;;;;;;11.45;5.35;;;19.30;59.30;;;;;;5106915;28;20550;-56
2023/12/15 10:16:05;;;;;;;12.02;5.90;;;19.30;59.20;;;;;;5092608;28;20608;-56
2023/12/15 10:18:31;;;;;;;14.93;5.65;;;19.30;58.90;;;;;;5110200;28;20076;-56
2023/12/15 10:20:58;;;;;;;8.15;4.75;;;19.30;59.00;;;;;;5110417;28;20114;-56
2023/12/15 10:23:27;;;;;;;14.45;5.35;;;19.30;59.40;;;;;;5109163;28;20043;-56
2023/12/15 10:25:54;;;;;;;12.20;5.55;;;19.30;59.20;;;;;;5110773;28;20042;-57
2023/12/15 10:28:20;;;;;;;12.02;5.00;;;19.30;59.00;;;;;;5110208;28;20092;-56
2023/12/15 10:30:50;;;;;;;10.43;6.07;;;19.30;59.00;;;;;;5110278;27;20502;-56
2023/12/15 10:33:17;;;;;;;10.85;5.05;;;19.40;59.00;;;;;;5110595;28;20069;-60
2023/12/15 10:35:48;;;;;;;10.77;4.78;;;19.50;59.00;;;;;;5110267;28;20016;-57
2023/12/15 10:38:17;;;;;;;9.32;5.28;;;19.50;58.90;;;;;;5110236;28;20490;-58
2023/12/15 10:40:43;;;;;;;9.68;4.80;;;19.60;58.80;;;;;;5109901;27;20545;-59
2023/12/15 10:43:13;;;;;;;8.88;4.93;;;19.60;58.60;;;;;;5110474;28;20027;-54
2023/12/15 10:45:39;;;;;;;13.70;5.15;;;19.70;58.50;;;;;;5110193;28;20028;-56
2023/12/15 10:48:07;;;;;;;9.60;5.07;;;19.70;58.40;;;;;;5109645;28;20038;-55
2023/12/15 10:50:33;;;;;;;8.63;4.68;;;19.80;58.40;;;;;;5109597;28;20042;-54
2023/12/15 10:53:01;;;;;;;10.15;4.40;;;19.80;58.30;;;;;;5110099;28;20390;-58
2023/12/15 10:55:28;;;;;;;12.38;4.43;;;19.80;58.20;;;;;;5110281;28;20552;-57
2023/12/15 10:57:58;;;;;;;11.70;4.55;;;19.80;58.20;;;;;;5092869;28;20032;-57
2023/12/15 11:00:24;;;;;;;13.07;4.70;;;19.80;58.10;;;;;;5109978;28;20016;-58
2023/12/15 11:02:51;;;;;;;9.95;4.80;;;19.80;58.00;;;;;;5109070;28;20088;-58
2023/12/15 11:05:17;;;;;;;14.93;4.82;;;19.80;58.30;;;;;;5109081;28;20024;-59
2023/12/15 11:07:43;;;;;;;12.35;4.95;;;19.80;58.20;;;;;;5109906;27;20019;-55
2023/12/15 11:10:12;;;;;;;13.52;4.63;;;19.90;58.20;;;;;;5109844;28;20023;-52
2023/12/15 11:12:42;;;;;;;8.75;4.93;;;19.90;58.20;;;;;;5091176;28;20049;-56
2023/12/15 11:15:17;;;;;;;;;;;19.90;58.10;;;;;;5109987;28;20051;-50
2023/12/15 11:17:47;;;;;;;9.02;4.90;;;20.00;58.10;;;;;;5110013;28;19938;-58
2023/12/15 11:20:19;;;;;;;7.47;4.00;;;19.90;58.10;;;;;;5109679;28;20490;-55
2023/12/15 11:23:08;;;;;;;10.82;5.05;;;20.00;58.10;;;;;;5109559;28;20294;-56
2023/12/15 11:25:45;;;;;;;11.85;4.65;;;19.90;58.10;;;;;;5108076;28;20031;-58
2023/12/15 11:28:17;;;;;;;8.98;5.05;;;20.00;58.00;;;;;;5107984;28;20027;-59
2023/12/15 11:30:52;;;;;;;9.75;4.90;;;20.00;58.00;;;;;;5108273;28;20043;-59
2023/12/15 11:33:22;;;;;;;9.25;4.25;;;20.00;58.00;;;;;;5107749;28;20096;-58
2023/12/15 11:36:02;;;;;;;8.55;4.53;;;19.90;57.90;;;;;;5109236;28;20443;-58
2023/12/15 11:38:29;;;;;;;10.25;4.78;;;20.00;58.00;;;;;;5108955;28;20100;-55
2023/12/15 11:40:56;;;;;;;10.82;4.88;;;20.00;58.00;;;;;;5108602;28;20031;-56
2023/12/15 11:43:25;;;;;;;8.60;4.60;;;20.00;58.00;;;;;;5090933;28;20656;-58
2023/12/15 11:50:20;;;;;;;;;;;20.00;57.90;;;;;;5110888;28;20030;-51
2023/12/15 11:56:58;;;;;;;9.15;4.50;;;20.00;58.00;;;;;;5073714;28;20046;-60
2023/12/15 11:59:24;;;;;;;9.63;5.00;;;20.00;58.00;;;;;;5080384;28;20028;-61
2023/12/15 12:01:51;;;;;;;10.32;4.53;;;20.00;57.90;;;;;;5086249;28;20027;-61
2023/12/15 12:04:19;;;;;;;14.35;5.07;;;19.90;57.90;;;;;;5081027;28;20016;-61
2023/12/15 12:06:46;;;;;;;9.80;4.90;;;19.90;58.00;;;;;;5114623;22;20044;-59
2023/12/15 12:09:12;;;;;;;9.38;4.80;;;20.00;58.00;;;;;;5090019;28;20016;-60
2023/12/15 12:11:39;;;;;;;8.80;4.38;;;19.90;57.90;;;;;;5103823;28;20034;-59
2023/12/15 12:14:04;;;;;;;9.70;4.90;;;20.00;58.00;;;;;;5099301;28;20031;-59
2023/12/15 12:16:34;;;;;;;9.45;4.45;;;19.90;57.80;;;;;;5088272;28;20103;-59
2023/12/15 12:19:00;;;;;;;;;;;19.90;57.80;;;;;;5085844;28;20047;-59
2023/12/15 12:21:27;;;;;;;11.48;4.65;;;19.90;57.90;;;;;;5088644;28;19985;-56
2023/12/15 12:23:53;;;;;;;10.43;5.53;;;19.90;57.80;;;;;;5089122;28;20443;-57
2023/12/15 12:26:18;;;;;;;9.75;5.03;;;19.90;57.90;;;;;;5088756;28;20403;-57
2023/12/15 12:28:48;;;;;;;9.60;5.10;;;19.90;57.90;;;;;;5089195;28;20030;-57
2023/12/15 12:31:17;;;;;;;8.82;4.85;;;19.90;57.90;;;;;;5085803;28;20032;-57
2023/12/15 12:33:43;;;;;;;9.00;4.90;;;19.90;58.00;;;;;;5101551;28;20024;-59
2023/12/15 12:36:09;;;;;;;11.77;4.82;;;19.90;57.90;;;;;;5091650;28;20028;-59
2023/12/15 12:38:35;;;;;;;9.13;5.03;;;19.90;57.90;;;;;;5087545;28;20036;-60
2023/12/15 12:41:05;;;;;;;9.93;4.85;;;19.90;57.90;;;;;;5089472;28;20024;-60
2023/12/15 12:43:31;;;;;;;9.82;5.10;;;19.90;58.00;;;;;;5088804;28;20062;-58
2023/12/15 12:45:57;;;;;;;9.52;4.47;;;19.90;57.90;;;;;;5089254;28;20470;-59
2023/12/15 12:48:23;;;;;;;8.55;4.70;;;19.90;57.90;;;;;;5090057;28;20034;-60